Enter the Airport ICAO Code

Search by Airport or City

Current Weather

PAEN | Kenai Municipal Airport

Kenai, Alaska, United States

Last Update 21 Minutes Ago

Partly Cloudy Sky

Temperature of 04 ºC

Moderate Winds from North

Temperature

04 ºC

Dew Point Temperature

09 ºC Below Zero

Relative Humidity

37.96 %

Wind Direction

North (360º, Without Significant Variations)

Wind Velocity

22 km/h (12 kt)

Gusts

None

Visibility

Greater than 10 Miles

Sea Level Pressure

29.60 inHg (Inches of Mercury)

Layers of Clouds

30% to 60% of Sky Covered from 2438 mts (8000 ft) Above Ground Level.

METAR PAEN 211253Z AUTO 36012KT 10SM SCT080 04/M09 A2960 RMK AO2 SLP026 T00391089 TSNO

Weather Forecast

PAEN | Kenai Municipal Airport

Kenai, Alaska, United States

Forecast valid for the next 23 Hours

From now on it is expected:

Partly Cloudy Sky

Moderate to Strong Winds from North with Gusts

In 2 hours it is expected the begining of:

Sky with Few Clouds

Strong Winds from North with Gusts

In 11 hours it is expected the begining of:

Clear Sky

Moderate Winds from North with Gusts

In 16 hours it is expected the begining of:

Moderate Winds from North

Maximum Temperature

No Data

Minimum Temperature

No Data

TAF PAEN 211129Z 2112/2212 02020G30KT P6SM FEW060 SCT100 FM211500 35025G35KT P6SM FEW200 FM220000 34015G25KT P6SM SKC FM220500 01010KT P6SM SKC